Time;durP1;ratioP1;P1;durP2;ratioP2;P2;SDS_P1;SDS_P2;PMS_P1;PMS_P2;Temp;Humidity;BMP_temperature;BMP_pressure;BME280_temperature;BME280_humidity;BME280_pressure;Samples;Min_cycle;Max_cycle;Signal;HPM_P1;HPM_P2
2023/09/13 00:02:04;;;;;;;14.70;8.90;;;19.20;99.90;;;;;;4914288;29;20541;-71
2023/09/13 00:04:32;;;;;;;21.43;10.20;;;19.00;99.90;;;;;;4914489;29;20450;-70
2023/09/13 00:07:00;;;;;;;17.67;10.30;;;18.90;99.90;;;;;;4913833;29;20450;-69
2023/09/13 00:09:28;;;;;;;17.60;10.53;;;18.80;99.90;;;;;;4914187;29;20522;-70
2023/09/13 00:11:56;;;;;;;14.87;10.10;;;18.60;99.90;;;;;;4914346;29;20482;-70
2023/09/13 00:14:24;;;;;;;16.50;10.40;;;18.60;99.90;;;;;;4914280;29;20474;-70
2023/09/13 00:16:52;;;;;;;15.23;10.20;;;18.70;99.90;;;;;;4913833;29;20541;-69
2023/09/13 00:19:21;;;;;;;21.70;10.30;;;18.50;99.90;;;;;;4914359;29;20873;-69
2023/09/13 00:21:49;;;;;;;15.73;9.53;;;18.50;99.90;;;;;;4914080;29;20470;-70
2023/09/13 00:24:18;;;;;;;15.70;10.30;;;18.40;99.90;;;;;;4914433;29;21023;-69
2023/09/13 00:26:46;;;;;;;17.30;11.00;;;18.30;99.90;;;;;;4914059;29;20486;-70
2023/09/13 00:29:14;;;;;;;17.03;11.37;;;18.30;99.90;;;;;;4913611;29;21020;-70
2023/09/13 00:31:42;;;;;;;17.80;12.17;;;18.50;99.90;;;;;;4918813;29;20495;-69
2023/09/13 00:34:10;;;;;;;17.80;11.70;;;18.50;99.90;;;;;;4913991;29;20486;-71
2023/09/13 00:36:40;;;;;;;17.57;12.23;;;18.50;99.90;;;;;;4913438;29;20526;-71
2023/09/13 00:39:08;;;;;;;18.07;11.80;;;18.60;99.90;;;;;;4913694;29;21118;-71
2023/09/13 00:41:36;;;;;;;18.27;12.70;;;18.60;99.90;;;;;;4913252;29;20665;-69
2023/09/13 00:44:04;;;;;;;19.40;11.70;;;18.60;99.90;;;;;;4913503;29;20932;-69
2023/09/13 00:46:32;;;;;;;16.17;10.07;;;18.70;99.90;;;;;;4913737;29;20542;-69
2023/09/13 00:49:00;;;;;;;19.50;12.27;;;18.60;99.90;;;;;;4913087;29;20948;-69
2023/09/13 00:51:29;;;;;;;21.70;11.10;;;18.60;99.90;;;;;;4913301;29;20557;-68
2023/09/13 00:54:04;;;;;;;15.60;11.77;;;18.60;99.90;;;;;;4913528;29;20963;-70
2023/09/13 00:56:33;;;;;;;18.60;13.07;;;18.60;99.90;;;;;;4913313;29;20452;-71
2023/09/13 00:59:02;;;;;;;19.80;13.10;;;18.60;99.90;;;;;;4913424;29;20549;-71
2023/09/13 01:01:31;;;;;;;21.17;13.93;;;18.50;99.90;;;;;;4912998;29;20984;-71
2023/09/13 01:03:59;;;;;;;20.77;14.10;;;18.50;99.90;;;;;;4913673;29;20454;-71
2023/09/13 01:06:28;;;;;;;22.73;15.07;;;18.50;99.90;;;;;;4913604;29;20537;-70
2023/09/13 01:08:56;;;;;;;20.97;13.43;;;18.50;99.90;;;;;;4913540;29;20454;-70
2023/09/13 01:11:26;;;;;;;19.10;13.10;;;18.50;99.90;;;;;;4913082;29;20477;-71
2023/09/13 01:13:53;;;;;;;19.90;14.60;;;18.40;99.90;;;;;;4913619;29;20451;-70
2023/09/13 01:16:28;;;;;;;18.80;12.50;;;18.50;99.90;;;;;;4913371;29;20545;-70
2023/09/13 01:19:03;;;;;;;19.43;12.17;;;18.50;99.90;;;;;;4912984;29;20520;-70
2023/09/13 01:21:55;;;;;;;20.70;13.30;;;18.60;99.90;;;;;;4912982;29;20560;-69
2023/09/13 01:24:49;;;;;;;23.33;15.70;;;18.60;99.90;;;;;;4913348;29;20537;-70
2023/09/13 01:27:38;;;;;;;22.13;14.10;;;18.60;99.90;;;;;;4913264;29;20446;-70
2023/09/13 01:30:10;;;;;;;21.37;13.23;;;18.60;99.90;;;;;;4905062;29;20936;-69
2023/09/13 01:32:37;;;;;;;19.77;13.83;;;18.60;99.90;;;;;;4913407;29;20865;-70
2023/09/13 01:35:06;;;;;;;20.70;12.70;;;18.50;99.90;;;;;;4913039;29;20446;-69
2023/09/13 01:37:34;;;;;;;20.23;12.90;;;18.60;99.90;;;;;;4913140;29;20493;-70
2023/09/13 01:40:05;;;;;;;18.70;12.10;;;18.60;99.90;;;;;;4913426;29;20682;-70
2023/09/13 01:42:34;;;;;;;19.27;12.67;;;18.60;99.90;;;;;;4913016;29;20450;-70
2023/09/13 01:45:03;;;;;;;22.27;12.47;;;18.50;99.90;;;;;;4914230;29;20461;-71
2023/09/13 01:47:34;;;;;;;21.63;12.10;;;18.60;99.90;;;;;;4913065;29;20454;-70
2023/09/13 01:50:02;;;;;;;20.17;11.60;;;18.60;99.90;;;;;;4912298;29;20462;-71
2023/09/13 01:52:30;;;;;;;19.73;12.37;;;18.60;99.90;;;;;;4912741;29;20462;-70
2023/09/13 01:54:58;;;;;;;17.53;11.70;;;18.50;99.90;;;;;;4912699;29;20513;-71
2023/09/13 01:57:26;;;;;;;18.77;13.93;;;18.40;99.90;;;;;;4912967;29;20542;-70
2023/09/13 01:59:54;;;;;;;18.40;13.47;;;18.40;99.90;;;;;;4913452;29;20455;-70
2023/09/13 02:02:22;;;;;;;20.00;13.00;;;18.60;99.90;;;;;;4915847;29;20839;-70
2023/09/13 02:04:52;;;;;;;18.00;12.47;;;18.70;99.90;;;;;;4916192;29;20537;-70
2023/09/13 02:07:20;;;;;;;20.60;12.20;;;18.80;99.90;;;;;;4916495;29;20492;-70
2023/09/13 02:09:48;;;;;;;16.77;12.07;;;18.80;99.90;;;;;;4916138;29;20462;-69
2023/09/13 02:12:16;;;;;;;17.83;11.80;;;18.90;99.90;;;;;;4916479;29;20474;-70
2023/09/13 02:14:44;;;;;;;17.63;12.10;;;18.90;99.90;;;;;;4916328;29;20450;-70
2023/09/13 02:17:12;;;;;;;20.63;11.37;;;18.80;99.90;;;;;;4916338;29;20561;-70
2023/09/13 02:19:40;;;;;;;16.27;10.70;;;18.80;99.90;;;;;;4915705;29;20493;-70
2023/09/13 02:22:09;;;;;;;17.83;11.00;;;18.80;99.90;;;;;;4916090;29;20531;-71
2023/09/13 02:24:37;;;;;;;17.03;11.40;;;18.80;99.90;;;;;;4916156;29;20897;-71
2023/09/13 02:27:05;;;;;;;17.50;11.50;;;18.80;99.90;;;;;;4915829;29;20522;-70
2023/09/13 02:29:33;;;;;;;18.93;11.90;;;18.70;99.90;;;;;;4916061;29;20478;-70
2023/09/13 02:32:01;;;;;;;17.23;12.30;;;18.60;99.90;;;;;;4915882;29;20490;-70
2023/09/13 02:34:29;;;;;;;16.97;11.60;;;18.60;99.90;;;;;;4915569;29;20466;-70
2023/09/13 02:36:58;;;;;;;16.13;11.80;;;18.50;99.90;;;;;;4915880;29;20835;-69
2023/09/13 02:39:36;;;;;;;16.10;10.80;;;18.40;99.90;;;;;;4915881;29;20502;-71
2023/09/13 02:42:05;;;;;;;34.07;14.43;;;18.30;99.90;;;;;;4916143;29;21118;-70
2023/09/13 02:44:34;;;;;;;19.00;12.47;;;18.30;99.90;;;;;;4916121;29;20450;-70
2023/09/13 02:47:03;;;;;;;19.70;11.63;;;18.30;99.90;;;;;;4915610;29;20979;-71
2023/09/13 02:49:32;;;;;;;21.10;11.53;;;18.20;99.90;;;;;;4915598;29;20542;-70
2023/09/13 02:52:00;;;;;;;18.50;11.73;;;18.20;99.90;;;;;;4915671;29;20482;-70
2023/09/13 02:54:28;;;;;;;18.10;11.53;;;18.20;99.90;;;;;;4915714;29;20454;-70
2023/09/13 02:56:57;;;;;;;18.20;11.77;;;18.30;99.90;;;;;;4915301;29;20514;-70
2023/09/13 02:59:25;;;;;;;15.93;11.03;;;18.30;99.90;;;;;;4915002;29;20486;-69
2023/09/13 03:01:53;;;;;;;16.57;11.40;;;18.30;99.90;;;;;;4915346;29;20477;-71
2023/09/13 03:04:21;;;;;;;18.97;11.60;;;18.30;99.90;;;;;;4915781;29;20457;-70
2023/09/13 03:06:50;;;;;;;17.37;11.90;;;18.30;99.90;;;;;;4915296;29;20458;-70
2023/09/13 03:09:18;;;;;;;18.67;12.13;;;18.30;99.90;;;;;;4915405;29;20458;-71
2023/09/13 03:11:45;;;;;;;17.80;13.33;;;18.30;99.90;;;;;;4914355;29;20474;-71
2023/09/13 03:14:15;;;;;;;19.23;12.10;;;18.30;99.90;;;;;;4915795;29;20454;-71
2023/09/13 03:16:43;;;;;;;20.47;12.90;;;18.30;99.90;;;;;;4915295;29;20460;-70
2023/09/13 03:19:11;;;;;;;21.53;11.87;;;18.40;99.90;;;;;;4912087;29;20494;-70
2023/09/13 03:21:39;;;;;;;18.60;11.70;;;18.40;99.90;;;;;;4915052;29;20513;-70
2023/09/13 03:24:07;;;;;;;20.53;13.80;;;18.50;99.90;;;;;;4915332;29;20482;-70
2023/09/13 03:26:39;;;;;;;14.70;9.20;;;18.50;99.90;;;;;;4915186;29;20451;-70
2023/09/13 03:29:07;;;;;;;15.83;10.50;;;18.50;99.90;;;;;;4915302;29;20477;-70
2023/09/13 03:31:38;;;;;;;14.60;9.27;;;18.40;99.90;;;;;;4914904;29;20518;-70
2023/09/13 03:34:06;;;;;;;13.20;7.37;;;18.40;99.90;;;;;;4914881;29;21037;-71
2023/09/13 03:36:34;;;;;;;13.30;8.93;;;18.50;99.90;;;;;;4916699;29;20456;-70
2023/09/13 03:39:03;;;;;;;13.70;8.60;;;18.40;99.90;;;;;;4915628;29;20490;-71
2023/09/13 03:41:32;;;;;;;11.50;7.00;;;18.30;99.90;;;;;;4916570;29;20996;-69
2023/09/13 03:44:00;;;;;;;11.77;7.33;;;18.30;99.90;;;;;;4916791;29;20454;-69
2023/09/13 03:46:28;;;;;;;13.73;7.27;;;18.20;99.90;;;;;;4917052;29;20488;-71
2023/09/13 03:48:58;;;;;;;14.73;7.33;;;18.10;99.90;;;;;;4916825;29;20471;-71
2023/09/13 03:51:26;;;;;;;12.40;7.00;;;18.00;99.90;;;;;;4916658;29;20488;-71
2023/09/13 03:53:54;;;;;;;13.43;8.20;;;18.10;99.90;;;;;;4914875;29;20455;-71
2023/09/13 03:56:22;;;;;;;13.40;7.70;;;18.20;99.90;;;;;;4913885;29;21114;-71
2023/09/13 03:58:50;;;;;;;13.07;8.57;;;18.20;99.90;;;;;;4914552;29;20485;-70
2023/09/13 04:01:18;;;;;;;14.53;9.17;;;18.10;99.90;;;;;;4913975;29;20546;-70
2023/09/13 04:03:46;;;;;;;15.73;7.30;;;18.10;99.90;;;;;;4914326;29;21161;-70
2023/09/13 04:06:17;;;;;;;12.83;7.60;;;18.10;99.90;;;;;;4914402;29;20896;-71
2023/09/13 04:08:45;;;;;;;12.83;7.80;;;18.10;99.90;;;;;;4914377;29;20446;-71
2023/09/13 04:11:13;;;;;;;15.07;8.10;;;18.00;99.90;;;;;;4910138;29;20570;-71
2023/09/13 04:13:40;;;;;;;12.53;7.53;;;18.00;99.90;;;;;;4915056;29;20534;-70
2023/09/13 04:16:13;;;;;;;13.90;8.27;;;18.10;99.90;;;;;;4913772;29;20819;-71
2023/09/13 04:18:41;;;;;;;12.93;7.63;;;18.10;99.90;;;;;;4914168;29;20462;-71
2023/09/13 04:21:09;;;;;;;11.20;7.13;;;18.30;99.90;;;;;;4913817;29;20505;-72
2023/09/13 04:23:38;;;;;;;12.23;7.17;;;18.20;99.90;;;;;;4913415;29;20459;-72
2023/09/13 04:26:06;;;;;;;12.70;7.80;;;18.20;99.90;;;;;;4913735;29;20888;-72
2023/09/13 04:28:34;;;;;;;12.50;6.87;;;18.20;99.90;;;;;;4913801;29;20980;-70
2023/09/13 04:31:02;;;;;;;12.13;6.90;;;18.10;99.90;;;;;;4913094;29;20532;-70
2023/09/13 04:33:50;;;;;;;13.47;7.60;;;18.10;99.90;;;;;;4913784;29;20948;-70
2023/09/13 04:36:18;;;;;;;11.53;6.43;;;18.00;99.90;;;;;;4913754;29;20438;-70
2023/09/13 04:38:48;;;;;;;13.57;7.17;;;18.00;99.90;;;;;;4913728;29;20453;-69
2023/09/13 04:41:17;;;;;;;12.17;7.00;;;17.90;99.90;;;;;;4913146;29;20478;-71
2023/09/13 04:43:45;;;;;;;17.57;7.97;;;17.90;99.90;;;;;;4914042;29;20452;-69
2023/09/13 04:46:13;;;;;;;13.90;9.03;;;18.00;99.90;;;;;;4906306;29;20771;-70
2023/09/13 04:48:41;;;;;;;12.93;7.90;;;18.00;99.90;;;;;;4913282;29;20461;-68
2023/09/13 04:51:11;;;;;;;11.87;6.97;;;18.10;99.90;;;;;;4913018;29;20470;-69
2023/09/13 04:53:39;;;;;;;12.80;7.23;;;18.20;99.90;;;;;;4913537;29;20450;-70
2023/09/13 04:56:09;;;;;;;11.30;5.93;;;18.20;99.90;;;;;;4913163;29;20469;-68
2023/09/13 04:58:37;;;;;;;13.50;7.03;;;18.20;99.90;;;;;;4913265;29;20451;-68
2023/09/13 05:01:06;;;;;;;11.87;7.00;;;18.20;99.90;;;;;;4911983;29;20518;-69
2023/09/13 05:03:34;;;;;;;11.30;6.67;;;18.30;99.90;;;;;;4912557;29;20450;-69
2023/09/13 05:06:02;;;;;;;10.60;5.90;;;18.30;99.90;;;;;;4912965;29;20454;-69
2023/09/13 05:08:35;;;;;;;11.10;6.50;;;18.30;99.90;;;;;;4912628;29;20462;-69
2023/09/13 05:11:03;;;;;;;11.80;7.10;;;18.30;99.90;;;;;;4909526;29;20478;-69
2023/09/13 05:13:32;;;;;;;10.60;5.90;;;18.30;99.90;;;;;;4923920;29;20532;-79
2023/09/13 05:16:00;;;;;;;11.40;6.00;;;18.30;99.90;;;;;;4910756;29;20554;-68
2023/09/13 05:18:28;;;;;;;10.60;5.63;;;18.40;99.90;;;;;;4911158;29;20905;-70
2023/09/13 05:20:57;;;;;;;11.33;6.30;;;18.40;99.90;;;;;;4910574;29;20532;-71
2023/09/13 05:23:25;;;;;;;12.77;6.50;;;18.40;99.90;;;;;;4909115;29;20462;-69
2023/09/13 05:25:55;;;;;;;12.03;6.20;;;18.40;99.90;;;;;;4918973;29;20453;-69
2023/09/13 05:28:24;;;;;;;9.63;5.10;;;18.40;99.90;;;;;;4911461;29;20443;-71
2023/09/13 05:30:54;;;;;;;11.37;5.40;;;18.50;99.90;;;;;;4910786;29;20878;-70
2023/09/13 05:33:23;;;;;;;12.67;6.73;;;18.60;99.90;;;;;;4913196;29;20975;-70
2023/09/13 05:35:52;;;;;;;11.30;5.97;;;18.60;99.90;;;;;;4916798;29;20544;-71
2023/09/13 05:38:20;;;;;;;10.17;5.83;;;18.70;99.90;;;;;;4915698;29;20454;-68
2023/09/13 05:40:48;;;;;;;13.80;6.50;;;18.70;99.90;;;;;;4916837;29;20572;-68
2023/09/13 05:43:15;;;;;;;12.00;6.13;;;18.70;99.90;;;;;;4909560;29;21031;-68
2023/09/13 05:45:44;;;;;;;12.40;5.87;;;18.80;99.90;;;;;;4916785;29;20446;-68
2023/09/13 05:48:13;;;;;;;12.40;6.17;;;18.80;99.90;;;;;;4916621;29;20458;-68
2023/09/13 05:50:41;;;;;;;9.87;5.67;;;18.70;99.90;;;;;;4916721;29;20478;-68
2023/09/13 05:53:09;;;;;;;12.27;5.80;;;18.70;99.90;;;;;;4917396;29;20476;-66
2023/09/13 05:55:37;;;;;;;10.73;5.37;;;18.70;99.90;;;;;;4923592;29;20549;-68
2023/09/13 05:58:05;;;;;;;11.23;5.80;;;18.80;99.90;;;;;;4917806;29;20537;-68
2023/09/13 06:00:33;;;;;;;9.50;5.40;;;18.90;99.90;;;;;;4916214;29;20490;-68
2023/09/13 06:03:01;;;;;;;9.70;4.77;;;19.00;99.90;;;;;;4917004;29;20450;-68
2023/09/13 06:05:31;;;;;;;10.37;5.43;;;19.00;99.90;;;;;;4916263;29;20454;-67
2023/09/13 06:07:59;;;;;;;10.80;5.23;;;18.90;99.90;;;;;;4916587;29;20462;-68
2023/09/13 06:10:27;;;;;;;10.17;5.23;;;18.90;99.90;;;;;;4916481;29;20478;-68
2023/09/13 06:12:55;;;;;;;12.97;5.80;;;18.90;99.90;;;;;;4916652;29;20540;-69
2023/09/13 06:15:23;;;;;;;11.83;5.73;;;18.90;99.90;;;;;;4916240;29;20460;-68
2023/09/13 06:17:51;;;;;;;10.20;4.93;;;19.00;99.90;;;;;;4916547;29;21211;-69
2023/09/13 06:20:19;;;;;;;11.07;5.47;;;19.30;99.90;;;;;;4916206;29;20576;-70
2023/09/13 06:22:49;;;;;;;9.50;4.60;;;19.10;99.90;;;;;;4914334;29;20941;-70
2023/09/13 06:25:19;;;;;;;10.70;5.47;;;19.20;99.90;;;;;;4917106;29;20446;-68
2023/09/13 06:27:47;;;;;;;10.60;5.43;;;19.20;99.90;;;;;;4921878;29;20462;-70
2023/09/13 06:30:14;;;;;;;15.90;5.93;;;19.10;99.90;;;;;;4921674;29;20472;-68
2023/09/13 06:32:43;;;;;;;13.83;5.27;;;19.10;99.90;;;;;;4926530;29;20482;-69
2023/09/13 06:35:12;;;;;;;9.50;5.10;;;19.00;99.90;;;;;;4928115;29;20453;-68
2023/09/13 06:37:44;;;;;;;11.47;5.60;;;19.00;99.90;;;;;;4927331;29;20532;-68
2023/09/13 06:40:16;;;;;;;11.03;4.90;;;19.00;99.90;;;;;;4915075;29;20493;-69
2023/09/13 06:42:44;;;;;;;10.23;4.70;;;19.10;99.90;;;;;;4921085;29;20488;-69
2023/09/13 06:45:15;;;;;;;10.13;5.43;;;19.10;99.90;;;;;;4927668;29;20477;-68
2023/09/13 06:47:54;;;;;;;10.20;4.90;;;19.20;99.90;;;;;;4926655;29;20446;-68
2023/09/13 06:50:22;;;;;;;9.73;4.80;;;19.20;99.90;;;;;;4928139;29;20469;-69
2023/09/13 06:52:53;;;;;;;9.90;4.90;;;19.30;99.90;;;;;;4925474;29;20463;-69
2023/09/13 06:55:42;;;;;;;9.27;4.50;;;19.40;99.90;;;;;;4917347;29;20457;-68
2023/09/13 06:58:14;;;;;;;11.13;4.23;;;19.60;99.90;;;;;;4915760;29;20533;-68
2023/09/13 07:00:48;;;;;;;10.47;4.30;;;19.70;99.90;;;;;;4914546;29;20500;-67
2023/09/13 07:03:36;;;;;;;10.00;5.10;;;19.80;99.90;;;;;;4915390;29;20448;-68
2023/09/13 07:06:09;;;;;;;10.90;4.43;;;19.90;99.90;;;;;;4915369;29;20443;-68
2023/09/13 07:08:37;;;;;;;10.10;4.30;;;20.00;99.90;;;;;;4915732;29;20457;-69
2023/09/13 07:11:06;;;;;;;9.77;4.30;;;20.20;99.90;;;;;;4915066;29;20494;-69
2023/09/13 07:13:34;;;;;;;10.80;4.43;;;20.20;99.90;;;;;;4915352;29;20453;-68
2023/09/13 07:16:02;;;;;;;11.20;4.80;;;20.40;99.90;;;;;;4915368;29;20447;-69
2023/09/13 07:18:30;;;;;;;12.40;3.60;;;20.50;99.90;;;;;;4915509;29;20450;-68
2023/09/13 07:20:58;;;;;;;10.20;4.27;;;20.50;99.90;;;;;;4915048;29;20493;-68
2023/09/13 07:23:26;;;;;;;9.23;4.20;;;20.50;99.90;;;;;;4915426;29;20529;-68
2023/09/13 07:25:54;;;;;;;9.10;3.60;;;20.50;99.90;;;;;;4914806;29;20832;-68
2023/09/13 07:28:24;;;;;;;8.83;3.20;;;20.60;99.90;;;;;;4915397;29;20455;-68
2023/09/13 07:30:52;;;;;;;11.20;3.87;;;20.60;99.90;;;;;;4914995;29;20473;-68
2023/09/13 07:33:20;;;;;;;10.33;3.57;;;20.60;99.90;;;;;;4915110;29;21001;-68
2023/09/13 07:35:53;;;;;;;9.90;4.00;;;20.60;99.90;;;;;;4914948;29;20838;-68
2023/09/13 07:38:21;;;;;;;10.30;3.63;;;20.60;99.90;;;;;;4914991;29;20529;-67
2023/09/13 07:40:49;;;;;;;9.30;3.70;;;20.60;99.90;;;;;;4914542;29;20521;-68
2023/09/13 07:43:20;;;;;;;9.40;3.90;;;20.60;99.90;;;;;;4914841;29;20482;-68
2023/09/13 07:45:50;;;;;;;10.10;4.70;;;20.60;99.90;;;;;;4914785;29;20513;-68
2023/09/13 07:48:18;;;;;;;10.33;3.53;;;20.50;99.90;;;;;;4914956;29;20806;-68
2023/09/13 07:50:46;;;;;;;8.77;3.60;;;20.40;99.90;;;;;;4914597;29;20481;-69
2023/09/13 07:53:14;;;;;;;7.80;3.23;;;20.40;99.90;;;;;;4914624;29;20593;-70
2023/09/13 07:55:42;;;;;;;8.43;3.33;;;20.60;99.90;;;;;;4914676;29;21016;-69
2023/09/13 07:58:10;;;;;;;11.03;4.53;;;20.60;99.90;;;;;;4914626;29;20485;-68
2023/09/13 08:00:38;;;;;;;10.87;3.80;;;20.80;99.90;;;;;;4914215;29;20475;-68
2023/09/13 08:03:07;;;;;;;8.70;3.60;;;20.90;99.90;;;;;;4914388;29;21308;-69
2023/09/13 08:05:36;;;;;;;8.93;3.73;;;20.90;99.90;;;;;;4914305;29;20948;-69
2023/09/13 08:08:04;;;;;;;9.53;3.37;;;21.00;99.90;;;;;;4914592;29;20460;-68
2023/09/13 08:10:32;;;;;;;8.53;3.60;;;21.00;99.90;;;;;;4914284;29;20478;-69
2023/09/13 08:13:00;;;;;;;8.27;3.00;;;21.10;99.90;;;;;;4914194;29;20450;-67
2023/09/13 08:15:28;;;;;;;9.00;3.67;;;21.20;99.90;;;;;;4914216;29;20482;-68
2023/09/13 08:18:17;;;;;;;10.73;3.50;;;21.20;99.90;;;;;;4914064;29;20877;-66
2023/09/13 08:20:45;;;;;;;9.27;3.60;;;21.20;99.90;;;;;;4913695;29;20996;-69
2023/09/13 08:23:14;;;;;;;8.07;2.90;;;21.30;99.90;;;;;;4914135;29;23707;-67
2023/09/13 08:25:43;;;;;;;8.03;2.67;;;21.30;99.90;;;;;;4913916;29;20442;-67
2023/09/13 08:28:11;;;;;;;8.07;3.17;;;21.40;99.90;;;;;;4913916;29;20458;-68
2023/09/13 08:30:39;;;;;;;9.13;3.70;;;21.40;99.90;;;;;;4913686;29;20999;-68
2023/09/13 08:33:10;;;;;;;8.90;3.60;;;21.30;99.90;;;;;;4914038;29;20454;-69
2023/09/13 08:35:40;;;;;;;8.50;4.00;;;21.30;99.90;;;;;;4914088;29;20455;-70
2023/09/13 08:38:08;;;;;;;10.47;4.30;;;21.30;99.90;;;;;;4914085;29;20545;-70
2023/09/13 08:40:41;;;;;;;8.73;3.57;;;21.40;99.90;;;;;;4913607;29;20478;-70
2023/09/13 08:43:11;;;;;;;9.30;4.27;;;21.40;99.90;;;;;;4913660;29;20510;-69
2023/09/13 08:45:41;;;;;;;10.17;4.07;;;21.50;99.90;;;;;;4913993;29;20537;-69
2023/09/13 08:48:10;;;;;;;8.83;4.13;;;21.60;99.90;;;;;;4913852;29;20975;-69
2023/09/13 08:50:41;;;;;;;10.57;4.00;;;21.60;99.90;;;;;;4913786;29;20470;-69
2023/09/13 08:53:10;;;;;;;9.30;3.87;;;21.70;99.90;;;;;;4913976;29;20477;-69
2023/09/13 08:55:39;;;;;;;9.37;4.03;;;21.70;99.90;;;;;;4913669;29;20473;-71
2023/09/13 08:58:07;;;;;;;10.57;3.80;;;21.80;99.90;;;;;;4913799;29;20505;-69
2023/09/13 09:00:38;;;;;;;9.73;4.10;;;21.80;99.90;;;;;;4913609;29;20578;-69
2023/09/13 09:03:07;;;;;;;9.87;3.70;;;21.70;99.90;;;;;;4913619;29;20916;-69
2023/09/13 09:05:37;;;;;;;9.77;3.63;;;21.50;99.90;;;;;;4913536;29;20482;-68
2023/09/13 09:08:10;;;;;;;10.57;4.57;;;21.50;99.90;;;;;;4912927;29;20458;-70
2023/09/13 09:10:38;;;;;;;9.77;4.57;;;21.40;99.90;;;;;;4913476;29;20478;-68
2023/09/13 09:13:10;;;;;;;10.27;4.13;;;21.20;99.90;;;;;;4913357;29;20535;-69
2023/09/13 09:15:40;;;;;;;9.83;4.40;;;21.00;99.90;;;;;;4913418;29;20454;-68
2023/09/13 09:18:12;;;;;;;11.80;4.87;;;21.00;99.90;;;;;;4913388;29;20948;-68
2023/09/13 09:20:41;;;;;;;9.80;4.17;;;20.90;99.90;;;;;;4913013;29;21112;-68
2023/09/13 09:23:12;;;;;;;10.03;4.27;;;20.90;99.90;;;;;;4913291;29;20493;-69
2023/09/13 09:25:43;;;;;;;9.97;3.90;;;21.00;99.90;;;;;;4913176;29;20967;-68
2023/09/13 10:10:10;;;;;;;9.40;4.00;;;20.60;99.90;;;;;;5069793;27;20559;-64
2023/09/13 10:12:45;;;;;;;9.93;4.13;;;22.30;99.90;;;;;;5086270;28;20845;-64
2023/09/13 10:15:15;;;;;;;9.63;3.97;;;22.70;99.90;;;;;;5086699;28;20473;-64
2023/09/13 10:17:44;;;;;;;8.80;4.00;;;23.00;99.90;;;;;;5079176;28;20517;-63
2023/09/13 10:20:15;;;;;;;9.97;4.47;;;23.10;99.90;;;;;;5081432;28;20484;-63
2023/09/13 10:22:46;;;;;;;9.13;4.50;;;23.00;99.90;;;;;;5081332;28;20442;-63
2023/09/13 10:25:19;;;;;;;9.57;4.00;;;22.90;99.90;;;;;;5078359;28;20438;-64
2023/09/13 10:27:50;;;;;;;9.67;3.87;;;22.90;99.90;;;;;;5085952;28;20478;-64
2023/09/13 10:30:22;;;;;;;8.90;3.70;;;22.90;99.90;;;;;;5084545;28;21146;-63
2023/09/13 10:32:57;;;;;;;14.13;6.53;;;22.90;99.90;;;;;;5085933;28;20538;-63
2023/09/13 10:35:28;;;;;;;8.60;4.40;;;23.10;99.90;;;;;;5084486;28;20434;-63
2023/09/13 10:38:08;;;;;;;8.83;3.50;;;23.10;99.90;;;;;;5086633;28;20938;-63
2023/09/13 10:40:40;;;;;;;8.83;3.87;;;23.10;99.90;;;;;;5085897;28;20468;-63
2023/09/13 10:43:10;;;;;;;10.80;4.50;;;23.10;99.90;;;;;;5086185;28;20996;-63
2023/09/13 10:45:41;;;;;;;9.07;4.07;;;23.40;99.90;;;;;;5085942;28;20978;-63
2023/09/13 10:48:10;;;;;;;9.07;4.33;;;23.70;99.90;;;;;;5086266;28;20470;-63
2023/09/13 10:50:39;;;;;;;11.17;5.30;;;23.70;99.90;;;;;;5085828;28;20512;-63
2023/09/13 10:53:08;;;;;;;9.83;4.10;;;24.00;99.90;;;;;;5086275;28;20569;-63
2023/09/13 10:55:38;;;;;;;9.27;3.57;;;24.00;99.90;;;;;;5086145;28;20986;-63
2023/09/13 10:58:09;;;;;;;11.47;4.17;;;24.00;99.90;;;;;;5086341;28;20442;-63
2023/09/13 11:00:38;;;;;;;9.63;4.53;;;23.90;99.90;;;;;;5085884;28;20509;-63
2023/09/13 11:03:06;;;;;;;9.07;4.30;;;23.80;99.90;;;;;;5086416;28;20957;-63
2023/09/13 11:05:35;;;;;;;9.70;4.40;;;23.70;99.90;;;;;;5086538;28;20549;-63
2023/09/13 11:08:03;;;;;;;7.80;3.47;;;23.50;99.90;;;;;;5086097;28;20497;-62
2023/09/13 11:10:32;;;;;;;9.40;4.27;;;23.80;99.90;;;;;;5075374;28;20467;-63
2023/09/13 11:13:13;;;;;;;10.10;3.80;;;24.10;99.90;;;;;;5072409;28;20496;-63
2023/09/13 11:15:49;;;;;;;8.50;3.43;;;24.60;99.90;;;;;;5072849;28;20461;-64
2023/09/13 11:18:18;;;;;;;9.90;4.70;;;24.90;99.90;;;;;;5072335;28;20442;-64
2023/09/13 11:20:46;;;;;;;9.30;4.70;;;25.00;99.90;;;;;;5071801;28;20734;-64
2023/09/13 11:23:18;;;;;;;9.30;4.93;;;24.80;99.90;;;;;;5072717;28;20803;-64
2023/09/13 11:26:04;;;;;;;9.93;4.40;;;24.60;99.90;;;;;;5070935;28;20534;-63
2023/09/13 11:28:46;;;;;;;9.23;3.73;;;24.70;99.90;;;;;;5071901;28;20478;-64
2023/09/13 11:31:17;;;;;;;9.60;4.07;;;25.00;99.90;;;;;;5071614;28;20498;-63
2023/09/13 11:33:47;;;;;;;10.20;5.20;;;25.00;99.90;;;;;;5071795;28;20462;-63
2023/09/13 11:36:17;;;;;;;9.83;4.47;;;24.90;99.90;;;;;;5067541;28;20459;-63
2023/09/13 11:38:45;;;;;;;12.13;5.23;;;25.20;99.90;;;;;;5059583;28;20487;-63
2023/09/13 11:41:18;;;;;;;11.30;4.80;;;25.10;99.90;;;;;;5064487;28;20463;-63
2023/09/13 11:43:50;;;;;;;9.80;4.60;;;25.10;99.90;;;;;;5066156;28;20471;-63
2023/09/13 11:46:31;;;;;;;9.90;5.23;;;24.80;99.90;;;;;;5070318;28;20470;-63
2023/09/13 11:49:00;;;;;;;11.23;5.50;;;24.60;99.90;;;;;;5071549;28;20568;-63
2023/09/13 11:51:33;;;;;;;9.10;4.23;;;24.60;99.90;;;;;;5071179;28;20810;-63
2023/09/13 12:07:01;;;;;;;9.53;4.60;;;25.70;99.90;;;;;;5109567;27;20310;-61
2023/09/13 12:09:30;;;;;;;9.23;4.00;;;26.30;99.90;;;;;;5105603;28;20442;-61
2023/09/13 12:12:01;;;;;;;8.83;4.10;;;26.60;99.90;;;;;;5079048;27;20451;-62
2023/09/13 12:14:37;;;;;;;10.33;4.53;;;26.80;99.90;;;;;;5023665;28;1308036;-62
2023/09/13 12:17:09;;;;;;;10.07;4.23;;;27.30;99.90;;;;;;5007118;28;20590;-62
2023/09/13 12:19:38;;;;;;;10.90;3.97;;;27.70;99.90;;;;;;4999647;28;20465;-62
2023/09/13 12:22:07;;;;;;;8.90;4.07;;;28.00;99.90;;;;;;5005548;28;20833;-63
2023/09/13 12:24:35;;;;;;;8.33;3.53;;;28.00;99.90;;;;;;5008857;28;20442;-64
2023/09/13 12:27:04;;;;;;;9.53;3.80;;;28.10;99.90;;;;;;5011244;28;20458;-62
2023/09/13 12:29:32;;;;;;;9.63;4.20;;;28.10;99.90;;;;;;5014341;28;20939;-61
2023/09/13 12:32:00;;;;;;;8.90;3.50;;;28.20;99.80;;;;;;5007522;28;20534;-62
2023/09/13 12:34:31;;;;;;;8.80;3.20;;;28.30;99.90;;;;;;5013086;28;20448;-64
2023/09/13 12:37:00;;;;;;;15.60;5.47;;;28.60;98.10;;;;;;5012161;28;20545;-61
2023/09/13 12:39:29;;;;;;;9.33;4.30;;;28.50;98.30;;;;;;5010441;28;20477;-61
2023/09/13 12:41:57;;;;;;;10.80;3.93;;;28.60;96.20;;;;;;5005193;28;20450;-62
2023/09/13 12:44:25;;;;;;;9.90;4.73;;;28.60;99.70;;;;;;5005866;28;20477;-62
2023/09/13 12:46:54;;;;;;;11.10;4.40;;;29.00;96.10;;;;;;5004950;28;20545;-62
2023/09/13 12:49:22;;;;;;;13.30;5.40;;;28.70;96.00;;;;;;5006042;28;20434;-62
2023/09/13 12:51:51;;;;;;;9.73;4.07;;;28.20;96.70;;;;;;5007336;28;20434;-63
2023/09/13 12:54:19;;;;;;;9.73;4.43;;;27.40;96.90;;;;;;5003298;28;21538;-62
2023/09/13 12:56:49;;;;;;;13.17;4.40;;;26.80;98.50;;;;;;5003969;28;20482;-62
2023/09/13 12:59:17;;;;;;;9.60;4.00;;;26.60;98.50;;;;;;5007096;28;20446;-62
2023/09/13 13:01:45;;;;;;;11.10;3.70;;;26.70;97.90;;;;;;5005586;28;20501;-62
2023/09/13 13:04:13;;;;;;;8.50;3.80;;;26.70;98.30;;;;;;5008194;28;20453;-62
2023/09/13 13:06:55;;;;;;;10.10;4.03;;;26.60;97.80;;;;;;5003619;28;20914;-62
2023/09/13 13:09:23;;;;;;;9.60;4.17;;;26.30;97.80;;;;;;4993056;28;20805;-62
2023/09/13 13:11:53;;;;;;;10.33;4.97;;;26.20;98.60;;;;;;4996786;28;20435;-62
2023/09/13 13:14:26;;;;;;;12.50;4.20;;;26.10;97.90;;;;;;5002714;28;20439;-62
2023/09/13 13:16:55;;;;;;;9.20;3.60;;;25.90;98.10;;;;;;4975988;28;20492;-62
2023/09/13 13:19:31;;;;;;;10.90;4.37;;;25.90;99.90;;;;;;4974666;28;20509;-64
2023/09/13 13:22:19;;;;;;;9.00;3.00;;;26.20;98.00;;;;;;4983902;28;20887;-62
2023/09/13 13:24:48;;;;;;;8.20;3.70;;;26.60;97.10;;;;;;4978614;28;20440;-62
2023/09/13 13:27:18;;;;;;;9.40;3.77;;;27.10;97.00;;;;;;4972585;28;20471;-62
2023/09/13 13:29:47;;;;;;;9.60;3.60;;;27.90;96.60;;;;;;4973563;28;20444;-62
2023/09/13 13:32:16;;;;;;;7.80;2.97;;;28.50;94.50;;;;;;4978611;28;20505;-62
2023/09/13 13:34:44;;;;;;;10.23;3.27;;;28.30;93.40;;;;;;4980500;28;20444;-62
2023/09/13 13:37:13;;;;;;;8.50;3.43;;;28.20;93.20;;;;;;4967746;28;21046;-62
2023/09/13 13:39:41;;;;;;;10.00;3.70;;;27.70;93.70;;;;;;4962258;28;20461;-62
2023/09/13 13:42:09;;;;;;;8.53;3.70;;;27.30;94.90;;;;;;4966272;28;20975;-63
2023/09/13 13:44:38;;;;;;;8.67;3.60;;;26.90;94.50;;;;;;4967527;28;20828;-63
2023/09/13 13:47:08;;;;;;;7.80;3.20;;;27.10;94.40;;;;;;4975475;28;20988;-63